sensor_id;sensor_type;location;lat;lon;timestamp;pressure;altitude;pressure_sealevel;temperature;humidity
51313;BME280;37397;53.226;10.400;2023-06-22T00:02:25;101539.03;;;23.99;50.93
51313;BME280;37397;53.226;10.400;2023-06-22T00:04:52;101539.59;;;23.98;51.07
51313;BME280;37397;53.226;10.400;2023-06-22T00:07:18;101541.28;;;23.93;51.18
51313;BME280;37397;53.226;10.400;2023-06-22T00:09:45;101552.47;;;23.89;51.41
51313;BME280;37397;53.226;10.400;2023-06-22T00:12:11;101550.94;;;23.88;51.40
51313;BME280;37397;53.226;10.400;2023-06-22T00:14:38;101544.63;;;23.84;51.53
51313;BME280;37397;53.226;10.400;2023-06-22T00:17:04;101556.59;;;23.80;51.47
51313;BME280;37397;53.226;10.400;2023-06-22T00:19:31;101548.19;;;23.77;51.49
51313;BME280;37397;53.226;10.400;2023-06-22T00:21:59;101556.72;;;23.75;51.40
51313;BME280;37397;53.226;10.400;2023-06-22T00:24:26;101547.50;;;23.71;51.45
51313;BME280;37397;53.226;10.400;2023-06-22T00:26:53;101556.03;;;23.69;51.42
51313;BME280;37397;53.226;10.400;2023-06-22T00:29:19;101555.56;;;23.64;51.48
51313;BME280;37397;53.226;10.400;2023-06-22T00:31:48;101544.25;;;23.61;51.70
51313;BME280;37397;53.226;10.400;2023-06-22T00:34:14;101544.59;;;23.57;51.76
51313;BME280;37397;53.226;10.400;2023-06-22T00:36:42;101548.59;;;23.54;52.04
51313;BME280;37397;53.226;10.400;2023-06-22T00:39:09;101540.97;;;23.51;51.94
51313;BME280;37397;53.226;10.400;2023-06-22T00:41:36;101550.06;;;23.47;51.94
51313;BME280;37397;53.226;10.400;2023-06-22T00:44:03;101544.53;;;23.44;52.07
51313;BME280;37397;53.226;10.400;2023-06-22T00:46:30;101555.19;;;23.41;52.11
51313;BME280;37397;53.226;10.400;2023-06-22T00:48:59;101552.03;;;23.39;51.95
51313;BME280;37397;53.226;10.400;2023-06-22T00:51:27;101556.06;;;23.36;51.92
51313;BME280;37397;53.226;10.400;2023-06-22T00:53:54;101555.59;;;23.32;51.75
51313;BME280;37397;53.226;10.400;2023-06-22T00:56:21;101553.03;;;23.28;52.26
51313;BME280;37397;53.226;10.400;2023-06-22T00:58:51;101555.47;;;23.24;52.07
51313;BME280;37397;53.226;10.400;2023-06-22T01:01:23;101544.69;;;23.19;52.22
51313;BME280;37397;53.226;10.400;2023-06-22T01:03:50;101552.88;;;23.21;52.16
51313;BME280;37397;53.226;10.400;2023-06-22T01:06:22;101553.19;;;23.17;51.99
51313;BME280;37397;53.226;10.400;2023-06-22T01:09:11;101559.91;;;23.12;51.95
51313;BME280;37397;53.226;10.400;2023-06-22T01:11:45;101552.28;;;23.09;52.14
51313;BME280;37397;53.226;10.400;2023-06-22T01:14:24;101545.16;;;23.04;52.00
51313;BME280;37397;53.226;10.400;2023-06-22T01:16:56;101542.81;;;23.03;52.34
51313;BME280;37397;53.226;10.400;2023-06-22T01:22:03;101545.78;;;22.97;52.42
51313;BME280;37397;53.226;10.400;2023-06-22T01:27:53;101546.78;;;22.86;52.44
51313;BME280;37397;53.226;10.400;2023-06-22T01:30:23;101539.38;;;22.85;52.59
51313;BME280;37397;53.226;10.400;2023-06-22T01:32:54;101546.28;;;22.82;52.46
51313;BME280;37397;53.226;10.400;2023-06-22T01:35:24;101551.06;;;22.80;52.67
51313;BME280;37397;53.226;10.400;2023-06-22T01:37:51;101549.31;;;22.76;52.77
51313;BME280;37397;53.226;10.400;2023-06-22T01:40:19;101546.47;;;22.71;52.44
51313;BME280;37397;53.226;10.400;2023-06-22T01:42:47;101552.28;;;22.71;52.49
51313;BME280;37397;53.226;10.400;2023-06-22T01:45:14;101550.47;;;22.68;52.56
51313;BME280;37397;53.226;10.400;2023-06-22T01:47:42;101542.84;;;22.65;52.46
51313;BME280;37397;53.226;10.400;2023-06-22T01:50:09;101541.84;;;22.62;52.80
51313;BME280;37397;53.226;10.400;2023-06-22T01:52:35;101534.97;;;22.60;52.75
51313;BME280;37397;53.226;10.400;2023-06-22T01:55:02;101540.31;;;22.55;53.04
51313;BME280;37397;53.226;10.400;2023-06-22T01:57:31;101539.53;;;22.55;52.76
51313;BME280;37397;53.226;10.400;2023-06-22T02:00:04;101528.38;;;22.40;52.64
51313;BME280;37397;53.226;10.400;2023-06-22T02:03:13;101540.47;;;22.44;52.68
51313;BME280;37397;53.226;10.400;2023-06-22T02:06:05;101537.88;;;22.40;52.59
51313;BME280;37397;53.226;10.400;2023-06-22T02:08:42;101537.66;;;22.38;52.88
51313;BME280;37397;53.226;10.400;2023-06-22T02:11:15;101541.09;;;22.37;53.15
51313;BME280;37397;53.226;10.400;2023-06-22T02:13:42;101529.25;;;22.35;53.12
51313;BME280;37397;53.226;10.400;2023-06-22T02:16:11;101525.06;;;22.30;53.14
51313;BME280;37397;53.226;10.400;2023-06-22T02:18:45;101527.72;;;22.28;53.06
51313;BME280;37397;53.226;10.400;2023-06-22T02:21:12;101536.19;;;22.26;53.14
51313;BME280;37397;53.226;10.400;2023-06-22T02:23:39;101535.16;;;22.24;53.21
51313;BME280;37397;53.226;10.400;2023-06-22T02:26:05;101521.47;;;22.18;53.38
51313;BME280;37397;53.226;10.400;2023-06-22T02:28:31;101525.50;;;22.15;53.48
51313;BME280;37397;53.226;10.400;2023-06-22T02:30:58;101534.22;;;22.15;53.36
51313;BME280;37397;53.226;10.400;2023-06-22T02:33:24;101525.22;;;22.13;53.49
51313;BME280;37397;53.226;10.400;2023-06-22T02:35:51;101525.00;;;22.11;53.57
51313;BME280;37397;53.226;10.400;2023-06-22T02:38:17;101527.69;;;22.09;53.29
51313;BME280;37397;53.226;10.400;2023-06-22T02:40:46;101528.78;;;22.06;53.52
51313;BME280;37397;53.226;10.400;2023-06-22T02:43:13;101531.41;;;22.04;53.52
51313;BME280;37397;53.226;10.400;2023-06-22T02:45:39;101519.56;;;22.02;53.48
51313;BME280;37397;53.226;10.400;2023-06-22T02:48:06;101522.22;;;22.00;53.53
51313;BME280;37397;53.226;10.400;2023-06-22T02:50:33;101524.91;;;21.98;53.59
51313;BME280;37397;53.226;10.400;2023-06-22T02:53:00;101520.19;;;21.95;53.62
51313;BME280;37397;53.226;10.400;2023-06-22T02:55:29;101517.59;;;21.91;53.68
51313;BME280;37397;53.226;10.400;2023-06-22T02:57:57;101521.03;;;21.90;53.91
51313;BME280;37397;53.226;10.400;2023-06-22T03:00:28;101527.94;;;21.87;53.69
51313;BME280;37397;53.226;10.400;2023-06-22T03:02:57;101532.72;;;21.84;53.73
51313;BME280;37397;53.226;10.400;2023-06-22T03:05:24;101539.06;;;21.82;53.72
51313;BME280;37397;53.226;10.400;2023-06-22T03:07:51;101540.94;;;21.80;53.78
51313;BME280;37397;53.226;10.400;2023-06-22T03:10:18;101550.22;;;21.78;53.81
51313;BME280;37397;53.226;10.400;2023-06-22T03:12:45;101545.50;;;21.75;53.66
51313;BME280;37397;53.226;10.400;2023-06-22T03:15:12;101553.94;;;21.73;53.68
51313;BME280;37397;53.226;10.400;2023-06-22T03:17:39;101559.53;;;21.71;53.98
51313;BME280;37397;53.226;10.400;2023-06-22T03:20:08;101551.88;;;21.68;53.99
51313;BME280;37397;53.226;10.400;2023-06-22T03:22:37;101552.19;;;21.64;54.16
51313;BME280;37397;53.226;10.400;2023-06-22T03:25:05;101551.97;;;21.62;53.97
51313;BME280;37397;53.226;10.400;2023-06-22T03:27:42;101556.19;;;21.61;53.84
51313;BME280;37397;53.226;10.400;2023-06-22T03:30:11;101546.41;;;21.59;54.04
51313;BME280;37397;53.226;10.400;2023-06-22T03:32:39;101548.84;;;21.55;54.12
51313;BME280;37397;53.226;10.400;2023-06-22T03:35:06;101555.19;;;21.53;54.10
51313;BME280;37397;53.226;10.400;2023-06-22T03:37:35;101564.69;;;21.54;54.40
51313;BME280;37397;53.226;10.400;2023-06-22T03:40:02;101563.69;;;21.51;54.43
51313;BME280;37397;53.226;10.400;2023-06-22T03:42:33;101559.72;;;21.48;54.45
51313;BME280;37397;53.226;10.400;2023-06-22T03:45:02;101556.81;;;21.48;54.70
51313;BME280;37397;53.226;10.400;2023-06-22T03:47:29;101556.56;;;21.46;54.39
51313;BME280;37397;53.226;10.400;2023-06-22T03:49:57;101560.78;;;21.45;54.41
51313;BME280;37397;53.226;10.400;2023-06-22T03:52:24;101567.38;;;21.46;54.67
51313;BME280;37397;53.226;10.400;2023-06-22T03:54:51;101569.50;;;21.45;54.66
51313;BME280;37397;53.226;10.400;2023-06-22T03:57:18;101573.72;;;21.44;54.64
51313;BME280;37397;53.226;10.400;2023-06-22T03:59:44;101570.56;;;21.42;54.55
51313;BME280;37397;53.226;10.400;2023-06-22T04:02:11;101572.16;;;21.43;54.78
51313;BME280;37397;53.226;10.400;2023-06-22T04:04:38;101583.78;;;21.43;54.69
51313;BME280;37397;53.226;10.400;2023-06-22T04:07:05;101582.19;;;21.42;54.39
51313;BME280;37397;53.226;10.400;2023-06-22T04:09:32;101585.09;;;21.42;54.59
51313;BME280;37397;53.226;10.400;2023-06-22T04:11:59;101583.28;;;21.39;54.83
51313;BME280;37397;53.226;10.400;2023-06-22T04:14:25;101584.63;;;21.38;54.54
51313;BME280;37397;53.226;10.400;2023-06-22T04:16:52;101592.78;;;21.40;54.76
51313;BME280;37397;53.226;10.400;2023-06-22T04:19:18;101596.47;;;21.40;54.94
51313;BME280;37397;53.226;10.400;2023-06-22T04:21:45;101583.28;;;21.39;54.80
51313;BME280;37397;53.226;10.400;2023-06-22T04:24:12;101589.88;;;21.40;54.98
51313;BME280;37397;53.226;10.400;2023-06-22T04:26:38;101589.88;;;21.40;54.64
51313;BME280;37397;53.226;10.400;2023-06-22T04:29:08;101583.28;;;21.39;54.59
51313;BME280;37397;53.226;10.400;2023-06-22T04:31:35;101587.75;;;21.40;54.79
51313;BME280;37397;53.226;10.400;2023-06-22T04:34:05;101586.16;;;21.39;55.03
51313;BME280;37397;53.226;10.400;2023-06-22T04:36:37;101596.47;;;21.40;54.78
51313;BME280;37397;53.226;10.400;2023-06-22T04:39:09;101583.03;;;21.37;54.66
51313;BME280;37397;53.226;10.400;2023-06-22T04:41:37;101594.88;;;21.39;54.98
51313;BME280;37397;53.226;10.400;2023-06-22T04:44:14;101594.88;;;21.39;54.88
51313;BME280;37397;53.226;10.400;2023-06-22T04:47:00;101585.63;;;21.41;55.18
51313;BME280;37397;53.226;10.400;2023-06-22T04:49:29;101589.88;;;21.40;55.19
51313;BME280;37397;53.226;10.400;2023-06-22T04:52:00;101588.00;;;21.42;55.21
51313;BME280;37397;53.226;10.400;2023-06-22T04:54:27;101588.00;;;21.42;55.12
51313;BME280;37397;53.226;10.400;2023-06-22T04:56:53;101591.94;;;21.45;55.23
51313;BME280;37397;53.226;10.400;2023-06-22T04:59:23;101588.25;;;21.44;55.30
51313;BME280;37397;53.226;10.400;2023-06-22T05:01:55;101588.25;;;21.44;55.17
51313;BME280;37397;53.226;10.400;2023-06-22T05:04:22;101584.25;;;21.47;55.39
51313;BME280;37397;53.226;10.400;2023-06-22T05:06:52;101582.97;;;21.48;55.39
51313;BME280;37397;53.226;10.400;2023-06-22T05:09:18;101585.34;;;21.50;55.43
51313;BME280;37397;53.226;10.400;2023-06-22T05:11:45;101586.09;;;21.51;55.35
51313;BME280;37397;53.226;10.400;2023-06-22T05:14:12;101585.56;;;21.52;55.38
51313;BME280;37397;53.226;10.400;2023-06-22T05:16:41;101583.72;;;21.55;55.52
51313;BME280;37397;53.226;10.400;2023-06-22T05:19:08;101581.59;;;21.55;55.36
51313;BME280;37397;53.226;10.400;2023-06-22T05:21:35;101576.81;;;21.58;55.47
51313;BME280;37397;53.226;10.400;2023-06-22T05:24:02;101574.16;;;21.60;55.42
51313;BME280;37397;53.226;10.400;2023-06-22T05:26:30;101576.75;;;21.63;55.66
51313;BME280;37397;53.226;10.400;2023-06-22T05:28:57;101577.56;;;21.64;55.33
51313;BME280;37397;53.226;10.400;2023-06-22T05:31:24;101576.72;;;21.69;55.58
51313;BME280;37397;53.226;10.400;2023-06-22T05:33:53;101571.69;;;21.70;55.23
51313;BME280;37397;53.226;10.400;2023-06-22T05:36:20;101578.22;;;21.76;54.88
51313;BME280;37397;53.226;10.400;2023-06-22T05:38:47;101579.28;;;21.78;55.07
51313;BME280;37397;53.226;10.400;2023-06-22T05:41:14;101580.81;;;21.79;55.09
51313;BME280;37397;53.226;10.400;2023-06-22T05:43:40;101579.75;;;21.82;55.14
51313;BME280;37397;53.226;10.400;2023-06-22T05:46:07;101582.88;;;21.84;55.33
51313;BME280;37397;53.226;10.400;2023-06-22T05:48:33;101584.72;;;21.88;54.99
51313;BME280;37397;53.226;10.400;2023-06-22T05:51:00;101585.97;;;21.92;55.10
51313;BME280;37397;53.226;10.400;2023-06-22T05:53:26;101580.41;;;21.94;54.98
51313;BME280;37397;53.226;10.400;2023-06-22T05:55:53;101584.34;;;21.97;54.79
51313;BME280;37397;53.226;10.400;2023-06-22T05:58:20;101583.25;;;22.00;54.82
51313;BME280;37397;53.226;10.400;2023-06-22T06:00:46;101572.41;;;22.00;54.71
51313;BME280;37397;53.226;10.400;2023-06-22T06:03:13;101580.81;;;22.04;54.78
51313;BME280;37397;53.226;10.400;2023-06-22T06:05:44;101576.59;;;22.05;54.63
51313;BME280;37397;53.226;10.400;2023-06-22T06:08:11;101575.50;;;22.08;54.81
51313;BME280;37397;53.226;10.400;2023-06-22T06:10:38;101581.56;;;22.10;54.75
51313;BME280;37397;53.226;10.400;2023-06-22T06:13:05;101588.41;;;22.13;54.58
51313;BME280;37397;53.226;10.400;2023-06-22T06:15:33;101579.94;;;22.15;54.81
51313;BME280;37397;53.226;10.400;2023-06-22T06:18:00;101579.38;;;22.16;54.54
51313;BME280;37397;53.226;10.400;2023-06-22T06:20:27;101580.97;;;22.17;54.68
51313;BME280;37397;53.226;10.400;2023-06-22T06:22:56;101575.38;;;22.19;54.68
51313;BME280;37397;53.226;10.400;2023-06-22T06:25:23;101568.25;;;22.20;54.57
51313;BME280;37397;53.226;10.400;2023-06-22T06:27:51;101571.88;;;22.27;54.65
51313;BME280;37397;53.226;10.400;2023-06-22T06:30:18;101572.91;;;22.29;54.49
51313;BME280;37397;53.226;10.400;2023-06-22T06:32:46;101573.16;;;22.31;54.48
51313;BME280;37397;53.226;10.400;2023-06-22T06:35:14;101570.50;;;22.33;54.55
51313;BME280;37397;53.226;10.400;2023-06-22T06:37:44;101568.59;;;22.36;54.51
51313;BME280;37397;53.226;10.400;2023-06-22T06:40:12;101565.94;;;22.38;54.42
51313;BME280;37397;53.226;10.400;2023-06-22T06:42:41;101550.06;;;22.39;54.58
51313;BME280;37397;53.226;10.400;2023-06-22T06:45:09;101561.38;;;22.43;54.54
51313;BME280;37397;53.226;10.400;2023-06-22T06:47:36;101562.19;;;22.43;54.57
51313;BME280;37397;53.226;10.400;2023-06-22T06:50:04;101561.09;;;22.46;54.43
51313;BME280;37397;53.226;10.400;2023-06-22T06:52:31;101550.53;;;22.43;54.59
51313;BME280;37397;53.226;10.400;2023-06-22T06:54:57;101554.16;;;22.49;54.68
51313;BME280;37397;53.226;10.400;2023-06-22T06:57:24;101553.06;;;22.52;54.60
51313;BME280;37397;53.226;10.400;2023-06-22T06:59:55;101554.06;;;22.55;54.63
51313;BME280;37397;53.226;10.400;2023-06-22T07:02:23;101542.44;;;22.55;54.87
51313;BME280;37397;53.226;10.400;2023-06-22T07:04:50;101555.34;;;22.60;54.87
51313;BME280;37397;53.226;10.400;2023-06-22T07:07:16;101555.56;;;22.62;54.64
51313;BME280;37397;53.226;10.400;2023-06-22T07:09:43;101554.47;;;22.65;54.71
51313;BME280;37397;53.226;10.400;2023-06-22T07:12:09;101559.97;;;22.68;54.63
51313;BME280;37397;53.226;10.400;2023-06-22T07:14:36;101550.47;;;22.68;54.75
51313;BME280;37397;53.226;10.400;2023-06-22T07:17:03;101550.94;;;22.72;54.91
51313;BME280;37397;53.226;10.400;2023-06-22T07:19:29;101554.09;;;22.74;54.76
51313;BME280;37397;53.226;10.400;2023-06-22T07:21:57;101550.31;;;22.79;54.77
51313;BME280;37397;53.226;10.400;2023-06-22T07:24:24;101557.72;;;22.80;54.40
51313;BME280;37397;53.226;10.400;2023-06-22T07:26:51;101548.97;;;22.80;54.78
51313;BME280;37397;53.226;10.400;2023-06-22T07:29:18;101558.97;;;22.85;54.75
51313;BME280;37397;53.226;10.400;2023-06-22T07:31:46;101552.59;;;22.86;54.69
51313;BME280;37397;53.226;10.400;2023-06-22T07:34:13;101558.88;;;22.90;54.76
51313;BME280;37397;53.226;10.400;2023-06-22T07:36:40;101558.53;;;22.94;54.68
51313;BME280;37397;53.226;10.400;2023-06-22T07:39:06;101546.34;;;22.95;55.03
51313;BME280;37397;53.226;10.400;2023-06-22T07:41:33;101552.09;;;23.01;54.75
51313;BME280;37397;53.226;10.400;2023-06-22T07:43:59;101545.72;;;23.03;54.86
51313;BME280;37397;53.226;10.400;2023-06-22T07:46:26;101541.97;;;23.08;54.87
51313;BME280;37397;53.226;10.400;2023-06-22T07:48:53;101547.47;;;23.11;55.02
51313;BME280;37397;53.226;10.400;2023-06-22T07:51:22;101548.50;;;23.14;54.83
51313;BME280;37397;53.226;10.400;2023-06-22T07:53:48;101544.47;;;23.17;54.87
51313;BME280;37397;53.226;10.400;2023-06-22T07:56:15;101545.72;;;23.22;54.94
51313;BME280;37397;53.226;10.400;2023-06-22T07:58:46;101536.66;;;23.25;54.71
51313;BME280;37397;53.226;10.400;2023-06-22T08:01:13;101544.50;;;23.30;54.56
51313;BME280;37397;53.226;10.400;2023-06-22T08:03:40;101538.69;;;23.30;54.33
51313;BME280;37397;53.226;10.400;2023-06-22T08:06:07;101534.09;;;23.35;54.49
51313;BME280;37397;53.226;10.400;2023-06-22T08:08:36;101544.09;;;23.40;54.38
51313;BME280;37397;53.226;10.400;2023-06-22T08:11:03;101535.03;;;23.43;54.65
51313;BME280;37397;53.226;10.400;2023-06-22T08:13:29;101537.38;;;23.45;54.47
51313;BME280;37397;53.226;10.400;2023-06-22T08:15:55;101545.22;;;23.50;54.25
51313;BME280;37397;53.226;10.400;2023-06-22T08:18:22;101542.53;;;23.52;54.16
51313;BME280;37397;53.226;10.400;2023-06-22T08:20:48;101554.66;;;23.56;54.08
51313;BME280;37397;53.226;10.400;2023-06-22T08:23:16;101542.66;;;23.60;54.40
51313;BME280;37397;53.226;10.400;2023-06-22T08:25:42;101537.31;;;23.64;54.27
51313;BME280;37397;53.226;10.400;2023-06-22T08:28:09;101544.13;;;23.66;54.27
51313;BME280;37397;53.226;10.400;2023-06-22T08:30:35;101534.81;;;23.68;53.99
51313;BME280;37397;53.226;10.400;2023-06-22T08:33:02;101536.06;;;23.73;54.30
51313;BME280;37397;53.226;10.400;2023-06-22T08:35:30;101533.16;;;23.73;53.93
51313;BME280;37397;53.226;10.400;2023-06-22T08:37:57;101530.94;;;23.79;53.83
51313;BME280;37397;53.226;10.400;2023-06-22T08:40:24;101526.13;;;23.81;54.02
51313;BME280;37397;53.226;10.400;2023-06-22T08:42:50;101525.25;;;23.87;53.85
51313;BME280;37397;53.226;10.400;2023-06-22T08:45:17;101523.31;;;23.89;54.13
51313;BME280;37397;53.226;10.400;2023-06-22T08:47:44;101528.84;;;23.93;54.13
51313;BME280;37397;53.226;10.400;2023-06-22T08:50:11;101533.56;;;23.96;53.80
51313;BME280;37397;53.226;10.400;2023-06-22T08:52:39;101525.81;;;23.98;53.89
51313;BME280;37397;53.226;10.400;2023-06-22T08:55:10;101527.03;;;24.03;53.98
51313;BME280;37397;53.226;10.400;2023-06-22T08:57:37;101520.88;;;24.07;54.01
51313;BME280;37397;53.226;10.400;2023-06-22T09:00:07;101525.56;;;24.10;53.84
51313;BME280;37397;53.226;10.400;2023-06-22T09:02:43;101524.44;;;24.13;53.62
51313;BME280;37397;53.226;10.400;2023-06-22T09:05:10;101528.38;;;24.15;53.47
51313;BME280;37397;53.226;10.400;2023-06-22T09:07:37;101516.38;;;24.19;53.61
51313;BME280;37397;53.226;10.400;2023-06-22T09:10:05;101512.91;;;24.20;53.56
51313;BME280;37397;53.226;10.400;2023-06-22T09:12:32;101513.91;;;24.23;53.27
51313;BME280;37397;53.226;10.400;2023-06-22T09:15:00;101513.00;;;24.28;53.21
51313;BME280;37397;53.226;10.400;2023-06-22T09:17:26;101509.19;;;24.33;53.30
51313;BME280;37397;53.226;10.400;2023-06-22T09:19:53;101509.19;;;24.33;53.23
51313;BME280;37397;53.226;10.400;2023-06-22T09:22:20;101511.97;;;24.39;53.11
51313;BME280;37397;53.226;10.400;2023-06-22T09:24:47;101518.81;;;24.42;53.02
51313;BME280;37397;53.226;10.400;2023-06-22T09:27:13;101506.00;;;24.45;53.36
51313;BME280;37397;53.226;10.400;2023-06-22T09:29:40;101510.94;;;24.50;53.01
51313;BME280;37397;53.226;10.400;2023-06-22T09:32:07;101505.31;;;24.52;53.07
51313;BME280;37397;53.226;10.400;2023-06-22T09:34:33;101511.84;;;24.58;52.86
51313;BME280;37397;53.226;10.400;2023-06-22T09:37:00;101500.41;;;24.60;53.12
51313;BME280;37397;53.226;10.400;2023-06-22T09:39:29;101502.16;;;24.63;53.20
51313;BME280;37397;53.226;10.400;2023-06-22T09:41:58;101493.66;;;24.65;52.36
51313;BME280;37397;53.226;10.400;2023-06-22T09:44:26;101492.50;;;24.68;52.86
51313;BME280;37397;53.226;10.400;2023-06-22T09:46:53;101472.09;;;24.68;52.57
51313;BME280;37397;53.226;10.400;2023-06-22T09:49:19;101477.00;;;24.73;52.70
51313;BME280;37397;53.226;10.400;2023-06-22T09:52:06;101475.88;;;24.77;52.63
51313;BME280;37397;53.226;10.400;2023-06-22T09:54:32;101469.66;;;24.80;52.53
51313;BME280;37397;53.226;10.400;2023-06-22T09:56:59;101470.44;;;24.81;52.45
51313;BME280;37397;53.226;10.400;2023-06-22T09:59:25;101468.53;;;24.83;52.20
51313;BME280;37397;53.226;10.400;2023-06-22T10:01:53;101463.91;;;24.88;52.02
51313;BME280;37397;53.226;10.400;2023-06-22T10:04:19;101470.16;;;24.92;52.06
51313;BME280;37397;53.226;10.400;2023-06-22T10:06:46;101457.13;;;24.93;51.99
51313;BME280;37397;53.226;10.400;2023-06-22T10:09:13;101466.09;;;24.95;51.65
51313;BME280;37397;53.226;10.400;2023-06-22T10:11:40;101464.19;;;24.98;52.18
51313;BME280;37397;53.226;10.400;2023-06-22T10:14:06;101456.41;;;25.00;51.84
51313;BME280;37397;53.226;10.400;2023-06-22T10:16:33;101455.06;;;25.01;51.86
51313;BME280;37397;53.226;10.400;2023-06-22T10:19:01;101454.72;;;25.05;51.76
51313;BME280;37397;53.226;10.400;2023-06-22T10:21:28;101466.06;;;25.08;51.73
51313;BME280;37397;53.226;10.400;2023-06-22T10:23:55;101457.50;;;25.10;51.71
51313;BME280;37397;53.226;10.400;2023-06-22T10:26:22;101452.63;;;25.13;51.88
51313;BME280;37397;53.226;10.400;2023-06-22T10:28:49;101448.56;;;25.16;51.63
51313;BME280;37397;53.226;10.400;2023-06-22T10:31:26;101440.81;;;25.19;51.72
51313;BME280;37397;53.226;10.400;2023-06-22T10:33:54;101436.56;;;25.20;51.83
51313;BME280;37397;53.226;10.400;2023-06-22T10:36:22;101441.22;;;25.23;51.67
51313;BME280;37397;53.226;10.400;2023-06-22T10:38:49;101439.88;;;25.24;51.67
51313;BME280;37397;53.226;10.400;2023-06-22T10:41:16;101446.97;;;25.28;51.98
51313;BME280;37397;53.226;10.400;2023-06-22T10:43:43;101435.47;;;25.30;51.54
51313;BME280;37397;53.226;10.400;2023-06-22T10:46:09;101434.91;;;25.32;51.82
51313;BME280;37397;53.226;10.400;2023-06-22T10:48:36;101426.38;;;25.34;51.62
51313;BME280;37397;53.226;10.400;2023-06-22T10:51:02;101417.81;;;25.36;51.74
51313;BME280;37397;53.226;10.400;2023-06-22T10:53:29;101419.16;;;25.35;51.57
51313;BME280;37397;53.226;10.400;2023-06-22T10:55:55;101420.72;;;25.36;51.77
51313;BME280;37397;53.226;10.400;2023-06-22T10:58:23;101425.81;;;25.43;51.55
51313;BME280;37397;53.226;10.400;2023-06-22T11:00:49;101424.69;;;25.46;51.81
51313;BME280;37397;53.226;10.400;2023-06-22T11:03:16;101426.47;;;25.50;51.60
51313;BME280;37397;53.226;10.400;2023-06-22T11:05:43;101420.81;;;25.52;51.65
51313;BME280;37397;53.226;10.400;2023-06-22T11:08:09;101419.66;;;25.55;51.62
51313;BME280;37397;53.226;10.400;2023-06-22T11:10:36;101417.16;;;25.59;51.80
51313;BME280;37397;53.226;10.400;2023-06-22T11:13:02;101413.09;;;25.62;51.64
51313;BME280;37397;53.226;10.400;2023-06-22T11:15:30;101404.53;;;25.64;51.55
51313;BME280;37397;53.226;10.400;2023-06-22T11:17:57;101409.44;;;25.69;51.67
51313;BME280;37397;53.226;10.400;2023-06-22T11:20:23;101396.78;;;25.74;51.41
51313;BME280;37397;53.226;10.400;2023-06-22T11:22:50;101388.22;;;25.76;51.53
51313;BME280;37397;53.226;10.400;2023-06-22T11:25:16;101391.78;;;25.82;51.65
51313;BME280;37397;53.226;10.400;2023-06-22T11:27:43;101395.66;;;25.85;51.73
51313;BME280;37397;53.226;10.400;2023-06-22T11:30:09;101394.72;;;25.90;51.32
51313;BME280;37397;53.226;10.400;2023-06-22T11:32:36;101392.22;;;25.94;51.34
51313;BME280;37397;53.226;10.400;2023-06-22T11:35:03;101392.63;;;25.98;51.37
51313;BME280;37397;53.226;10.400;2023-06-22T11:37:29;101393.81;;;26.03;51.47
51313;BME280;37397;53.226;10.400;2023-06-22T11:39:56;101394.03;;;26.05;51.11
51313;BME280;37397;53.226;10.400;2023-06-22T11:42:32;101394.63;;;26.11;51.42
51313;BME280;37397;53.226;10.400;2023-06-22T11:44:58;101397.78;;;26.13;51.33
51313;BME280;37397;53.226;10.400;2023-06-22T11:47:25;101389.19;;;26.15;51.45
51313;BME280;37397;53.226;10.400;2023-06-22T11:49:51;101386.88;;;26.22;51.03
51313;BME280;37397;53.226;10.400;2023-06-22T11:52:18;101384.91;;;26.24;51.24
51313;BME280;37397;53.226;10.400;2023-06-22T11:54:45;101375.56;;;26.26;51.09
51313;BME280;37397;53.226;10.400;2023-06-22T11:57:12;101376.75;;;26.30;51.36
51313;BME280;37397;53.226;10.400;2023-06-22T11:59:39;101377.16;;;26.34;50.89
51313;BME280;37397;53.226;10.400;2023-06-22T12:02:05;101378.13;;;26.37;51.22
51313;BME280;37397;53.226;10.400;2023-06-22T12:04:33;101376.59;;;26.36;50.82
51313;BME280;37397;53.226;10.400;2023-06-22T12:07:00;101369.94;;;26.43;51.02
51313;BME280;37397;53.226;10.400;2023-06-22T12:09:27;101370.13;;;26.45;50.80
51313;BME280;37397;53.226;10.400;2023-06-22T12:11:53;101362.34;;;26.48;50.74
51313;BME280;37397;53.226;10.400;2023-06-22T12:14:20;101360.41;;;26.50;50.76
51313;BME280;37397;53.226;10.400;2023-06-22T12:16:46;101360.78;;;26.54;51.19
51313;BME280;37397;53.226;10.400;2023-06-22T12:19:13;101364.72;;;26.57;50.82
51313;BME280;37397;53.226;10.400;2023-06-22T12:21:39;101356.88;;;26.60;50.70
51313;BME280;37397;53.226;10.400;2023-06-22T12:24:07;101355.97;;;26.65;50.64
51313;BME280;37397;53.226;10.400;2023-06-22T12:26:33;101353.41;;;26.69;50.81
51313;BME280;37397;53.226;10.400;2023-06-22T12:29:00;101355.94;;;26.72;51.00
51313;BME280;37397;53.226;10.400;2023-06-22T12:31:26;101348.16;;;26.75;50.64
51313;BME280;37397;53.226;10.400;2023-06-22T12:33:53;101343.66;;;26.74;50.93
51313;BME280;37397;53.226;10.400;2023-06-22T12:36:19;101340.53;;;26.80;50.86
51313;BME280;37397;53.226;10.400;2023-06-22T12:38:46;101339.97;;;26.81;50.55
51313;BME280;37397;53.226;10.400;2023-06-22T12:41:12;101349.13;;;26.85;50.57
51313;BME280;37397;53.226;10.400;2023-06-22T12:43:40;101340.56;;;26.87;50.76
51313;BME280;37397;53.226;10.400;2023-06-22T12:46:06;101333.13;;;26.86;50.66
51313;BME280;37397;53.226;10.400;2023-06-22T12:48:32;101339.38;;;26.90;50.69
51313;BME280;37397;53.226;10.400;2023-06-22T12:50:59;101325.91;;;26.87;50.71